Arland, Wisconsin
Current Conditions -  °F | °C
As of 7:35 AM on Saturday 25 Oct 2014 (Local Time) from KUBE Reporting Station
Clear Clear  
Wind Chill:   Ceiling: Unl
Heat Index:   Visibility: 10mi
Dew Point:   Wind: 10mph
Humidity: 61%   Direction: 290°WNW
Pressure: 29.93"   Gusts: NA
Location:  45.3064°N, 92.1345°W
Report Text: KUBE 251235Z AUTO 29009KT 10SM CLR 07/00 A2993 RMK AO2
Loading
Personal Weather Stations






























Interactive Weather Map
Tropical Storm Tracking
New forecast layout! Learn more

10-Day Weather Forecast

Advertisements
Track Severe Weather on mobile